Time;durP1;ratioP1;P1;durP2;ratioP2;P2;SDS_P1;SDS_P2;PMS_P1;PMS_P2;Temp;Humidity;BMP_temperature;BMP_pressure;BME280_temperature;BME280_humidity;BME280_pressure;Samples;Min_cycle;Max_cycle;Signal;HPM_P1;HPM_P2
2021/05/05 02:45:18;;;;;;;11.25;5.60;;;15.10;69.60;;;;;;5938566;23;21174;31
2021/05/05 02:47:44;;;;;;;10.65;6.18;;;15.10;69.90;;;;;;4863491;29;20049;-68
2021/05/05 02:50:10;;;;;;;13.25;5.90;;;15.10;70.30;;;;;;4887433;29;20032;-69
2021/05/05 02:52:36;;;;;;;16.33;6.05;;;15.00;70.60;;;;;;4881389;29;20039;-69
2021/05/05 02:55:03;;;;;;;8.63;5.90;;;15.00;70.20;;;;;;4888987;29;20025;-68
2021/05/05 02:57:30;;;;;;;9.43;5.75;;;15.00;70.40;;;;;;4887442;29;20033;-68
2021/05/05 02:59:56;;;;;;;8.10;5.82;;;15.10;70.20;;;;;;4888964;29;20073;-68
2021/05/05 03:02:21;;;;;;;11.07;6.07;;;15.10;71.00;;;;;;4886139;29;20312;-68
2021/05/05 03:04:47;;;;;;;9.50;5.78;;;15.10;70.00;;;;;;4889061;29;20088;-69
2021/05/05 03:07:13;;;;;;;8.75;5.18;;;15.10;70.20;;;;;;4887809;29;20033;-68
2021/05/05 03:09:38;;;;;;;7.65;5.70;;;15.20;70.70;;;;;;4887705;29;20077;-68
2021/05/05 03:12:05;;;;;;;7.35;5.00;;;15.10;70.40;;;;;;4888663;29;20028;-68
2021/05/05 03:14:31;;;;;;;10.55;5.88;;;15.10;70.40;;;;;;4888953;29;20025;-68
2021/05/05 03:16:57;;;;;;;9.25;5.28;;;15.10;70.90;;;;;;4903136;29;20219;-68
2021/05/05 03:19:24;;;;;;;7.90;5.60;;;15.10;70.70;;;;;;4888852;29;20032;-68
2021/05/05 03:21:50;;;;;;;11.10;5.22;;;15.10;70.50;;;;;;4888817;29;20109;-69
2021/05/05 03:24:16;;;;;;;8.25;5.78;;;15.10;71.00;;;;;;4888745;29;20029;-69
2021/05/05 03:26:41;;;;;;;7.82;5.93;;;15.10;71.20;;;;;;4888511;29;20040;-68
2021/05/05 03:29:09;;;;;;;10.38;6.32;;;15.10;71.10;;;;;;4903028;29;20246;-68
2021/05/05 03:31:34;;;;;;;11.95;5.57;;;15.00;71.70;;;;;;4872317;29;20021;-68
2021/05/05 03:34:05;;;;;;;13.55;6.55;;;15.00;71.70;;;;;;4891081;29;20031;-68
2021/05/05 03:36:30;;;;;;;11.43;6.22;;;15.00;72.00;;;;;;4891295;29;20045;-68
2021/05/05 03:38:56;;;;;;;8.73;5.75;;;15.00;71.70;;;;;;4890203;29;20032;-68
2021/05/05 03:41:22;;;;;;;9.25;5.75;;;15.00;72.00;;;;;;4892225;29;20053;-68
2021/05/05 03:43:48;;;;;;;8.75;5.47;;;15.00;72.10;;;;;;4892293;29;20025;-68
2021/05/05 03:46:14;;;;;;;6.57;4.78;;;15.00;71.50;;;;;;4891782;29;20053;-68
2021/05/05 03:48:40;;;;;;;10.25;5.10;;;15.00;71.70;;;;;;4880704;29;20084;-69
2021/05/05 03:51:06;;;;;;;8.70;5.53;;;15.00;71.90;;;;;;4883477;29;20028;-68
2021/05/05 03:53:32;;;;;;;6.78;4.43;;;15.00;72.00;;;;;;4876605;29;20045;-68
2021/05/05 03:55:58;;;;;;;13.25;5.88;;;15.00;72.50;;;;;;4897222;29;20088;-68
2021/05/05 03:58:24;;;;;;;10.32;5.15;;;15.00;72.00;;;;;;4903416;29;20090;-68
2021/05/05 04:00:50;;;;;;;6.78;4.55;;;15.00;72.00;;;;;;4894298;29;20360;-68
2021/05/05 04:03:15;;;;;;;7.63;4.82;;;15.10;72.20;;;;;;4880501;29;20032;-68
2021/05/05 04:05:41;;;;;;;12.13;5.13;;;15.10;72.00;;;;;;4891419;29;20200;-69
2021/05/05 04:08:07;;;;;;;9.32;6.25;;;15.10;72.80;;;;;;4892401;29;20326;-68
2021/05/05 04:10:33;;;;;;;10.50;5.63;;;15.10;72.80;;;;;;4863078;29;20157;-68
2021/05/05 04:13:00;;;;;;;9.45;5.18;;;15.10;73.60;;;;;;4888549;29;20021;-68
2021/05/05 04:15:25;;;;;;;14.32;5.07;;;15.10;73.60;;;;;;4889353;29;20040;-68
2021/05/05 04:17:51;;;;;;;11.25;4.28;;;15.10;73.40;;;;;;4889424;29;20029;-68
2021/05/05 04:20:19;;;;;;;11.57;4.63;;;15.20;72.80;;;;;;4879116;29;20348;-68
2021/05/05 04:22:45;;;;;;;9.73;4.50;;;15.10;72.50;;;;;;4885756;29;20051;-68
2021/05/05 04:25:11;;;;;;;10.48;4.35;;;15.10;72.40;;;;;;4879658;29;20029;-68
2021/05/05 04:27:37;;;;;;;11.30;5.15;;;15.10;72.40;;;;;;4880969;29;20081;-68
2021/05/05 04:30:06;;;;;;;7.55;4.15;;;15.20;73.10;;;;;;4873381;29;20037;-68
2021/05/05 04:32:31;;;;;;;17.33;5.22;;;15.30;73.80;;;;;;4876504;29;20316;-68
2021/05/05 04:34:57;;;;;;;10.98;4.28;;;15.40;73.30;;;;;;4880669;29;20095;-69
2021/05/05 04:37:23;;;;;;;20.75;5.28;;;15.50;73.20;;;;;;4875722;29;20092;-69
2021/05/05 04:39:48;;;;;;;9.07;4.70;;;15.50;72.30;;;;;;4877260;29;20044;-69
2021/05/05 04:42:14;;;;;;;20.92;6.45;;;15.50;72.10;;;;;;4873120;29;20025;-69
2021/05/05 04:44:40;;;;;;;11.15;5.47;;;15.60;72.20;;;;;;4880559;29;20036;-69
2021/05/05 04:47:06;;;;;;;29.38;6.45;;;15.70;71.60;;;;;;4883345;29;20048;-73
2021/05/05 04:49:32;;;;;;;35.42;6.70;;;15.70;71.30;;;;;;4880954;29;20032;-69
2021/05/05 04:51:57;;;;;;;24.23;5.80;;;15.70;71.40;;;;;;4887218;29;20256;-69
2021/05/05 04:54:23;;;;;;;16.77;5.35;;;15.80;71.50;;;;;;4885241;29;20022;-69
2021/05/05 04:56:49;;;;;;;16.65;4.60;;;15.80;70.80;;;;;;4883789;29;20289;-69
2021/05/05 04:59:15;;;;;;;14.73;4.68;;;15.80;69.80;;;;;;4887741;29;20096;-68
2021/05/05 05:01:41;;;;;;;8.02;4.40;;;15.80;69.60;;;;;;4885472;29;20031;-68
2021/05/05 05:04:07;;;;;;;12.32;4.90;;;15.90;69.90;;;;;;4886934;29;20029;-68
2021/05/05 05:06:33;;;;;;;11.55;5.03;;;15.90;70.00;;;;;;4884849;29;20029;-69
2021/05/05 05:08:58;;;;;;;8.57;3.92;;;15.90;70.00;;;;;;4884708;29;20025;-69
2021/05/05 05:11:24;;;;;;;13.23;4.65;;;16.00;69.50;;;;;;4884708;29;20031;-69
2021/05/05 05:13:50;;;;;;;11.55;4.55;;;15.90;69.90;;;;;;4888600;29;20044;-69
2021/05/05 05:16:16;;;;;;;14.13;4.45;;;15.90;69.90;;;;;;4887491;29;20017;-69
2021/05/05 05:18:42;;;;;;;17.42;6.40;;;15.80;70.10;;;;;;4865292;29;20324;-69
2021/05/05 05:21:07;;;;;;;15.43;5.68;;;15.80;70.20;;;;;;4884240;29;20209;-70
2021/05/05 05:23:34;;;;;;;16.25;6.32;;;15.70;69.90;;;;;;4884677;29;20331;-69
2021/05/05 05:26:00;;;;;;;12.90;6.00;;;15.70;70.50;;;;;;4884141;29;20021;-69
2021/05/05 05:28:27;;;;;;;14.07;5.43;;;15.70;70.50;;;;;;4894717;29;20029;-69
2021/05/05 05:30:53;;;;;;;17.55;5.30;;;15.70;70.40;;;;;;4864456;29;20036;-70
2021/05/05 05:33:19;;;;;;;7.57;4.65;;;15.70;71.00;;;;;;4884678;29;20065;-70
2021/05/05 05:35:44;;;;;;;14.50;4.95;;;15.70;71.30;;;;;;4886810;29;20360;-69
2021/05/05 05:38:11;;;;;;;18.85;5.97;;;15.70;70.80;;;;;;4877885;29;20085;-70
2021/05/05 05:40:37;;;;;;;13.60;6.07;;;15.70;71.00;;;;;;4883953;29;20025;-69
2021/05/05 05:43:03;;;;;;;10.57;6.20;;;15.70;70.70;;;;;;4878083;29;20040;-70
2021/05/05 05:45:29;;;;;;;12.43;6.32;;;15.80;70.40;;;;;;4879377;29;20025;-69
2021/05/05 05:47:54;;;;;;;15.27;5.55;;;15.80;71.10;;;;;;4876990;29;20041;-69
2021/05/05 05:50:21;;;;;;;12.68;5.95;;;15.90;70.70;;;;;;4879789;29;20022;-70
2021/05/05 05:52:47;;;;;;;11.23;6.10;;;16.00;70.50;;;;;;4885725;29;20097;-69
2021/05/05 05:55:16;;;;;;;22.80;7.90;;;16.00;70.20;;;;;;4879128;29;20025;-69
2021/05/05 05:57:43;;;;;;;19.60;6.97;;;16.10;69.80;;;;;;4873936;29;20031;-70
2021/05/05 06:00:13;;;;;;;26.85;8.80;;;16.10;69.60;;;;;;4882527;29;20045;-70
2021/05/05 06:02:40;;;;;;;11.98;7.03;;;16.10;69.10;;;;;;4875900;29;20029;-69
2021/05/05 06:05:07;;;;;;;20.92;7.90;;;16.10;69.60;;;;;;4878786;29;20033;-69
2021/05/05 06:07:33;;;;;;;22.05;7.63;;;16.10;69.40;;;;;;4875607;29;20361;-69
2021/05/05 06:09:59;;;;;;;21.92;7.07;;;16.30;69.20;;;;;;4875088;29;20036;-69
2021/05/05 06:12:25;;;;;;;15.43;6.80;;;16.80;68.30;;;;;;4879958;29;20337;-69
2021/05/05 06:14:51;;;;;;;15.05;6.85;;;17.30;66.60;;;;;;4875739;29;20257;-69
2021/05/05 06:17:18;;;;;;;18.50;7.10;;;17.60;63.90;;;;;;4877349;29;20029;-69
2021/05/05 06:19:44;;;;;;;22.00;5.97;;;18.10;62.60;;;;;;4879988;29;20021;-70
2021/05/05 06:22:10;;;;;;;11.82;6.53;;;18.50;61.20;;;;;;4876731;29;20034;-70
2021/05/05 06:24:35;;;;;;;15.40;6.22;;;18.70;59.80;;;;;;4881911;29;20240;-70
2021/05/05 06:27:02;;;;;;;13.70;6.13;;;19.00;59.80;;;;;;4871129;29;20265;-70
2021/05/05 06:29:27;;;;;;;20.60;6.88;;;19.40;59.70;;;;;;4878452;29;20032;-69
2021/05/05 06:31:53;;;;;;;21.17;6.70;;;19.50;58.90;;;;;;4868422;29;20380;-70
2021/05/05 06:34:19;;;;;;;14.18;6.13;;;19.70;58.10;;;;;;4885499;29;20021;-70
2021/05/05 06:36:45;;;;;;;11.55;5.95;;;20.00;57.10;;;;;;4899952;29;20044;-70
2021/05/05 06:39:11;;;;;;;9.88;5.57;;;20.20;57.70;;;;;;4882639;29;20031;-70
2021/05/05 06:41:40;;;;;;;14.98;5.70;;;20.30;55.90;;;;;;4881233;29;20029;-70
2021/05/05 06:44:07;;;;;;;13.43;5.68;;;20.50;55.20;;;;;;4893931;29;20113;-69
2021/05/05 06:46:34;;;;;;;11.27;5.47;;;20.50;54.30;;;;;;4876421;29;20056;-69
2021/05/05 06:49:00;;;;;;;15.27;5.72;;;20.30;53.00;;;;;;4877260;29;20057;-70
2021/05/05 06:51:27;;;;;;;10.52;5.43;;;20.00;52.10;;;;;;4886791;29;20074;-69
2021/05/05 06:53:52;;;;;;;14.70;5.87;;;19.90;54.70;;;;;;4886804;29;20025;-70
2021/05/05 06:56:18;;;;;;;13.00;5.30;;;20.10;54.30;;;;;;4880801;29;20603;-70
2021/05/05 06:58:44;;;;;;;13.45;6.05;;;20.40;52.50;;;;;;4882429;29;20025;-70
2021/05/05 07:01:10;;;;;;;11.90;5.93;;;20.50;51.20;;;;;;4885108;29;20064;-70
2021/05/05 07:03:35;;;;;;;12.88;5.63;;;20.50;52.40;;;;;;4879808;29;20029;-70
2021/05/05 07:06:02;;;;;;;16.90;6.03;;;20.60;52.10;;;;;;4883526;29;20030;-70
2021/05/05 07:08:28;;;;;;;9.13;5.30;;;20.80;51.70;;;;;;4885857;29;20021;-70
2021/05/05 07:10:54;;;;;;;11.17;5.37;;;21.00;52.50;;;;;;4884252;29;20032;-70
2021/05/05 07:13:20;;;;;;;14.30;5.15;;;21.10;49.80;;;;;;4899898;29;20033;-70
2021/05/05 07:15:46;;;;;;;9.50;4.97;;;21.00;50.70;;;;;;4874276;29;20050;-70
2021/05/05 07:18:12;;;;;;;16.77;5.50;;;21.00;50.70;;;;;;4876795;29;20181;-70
2021/05/05 07:20:38;;;;;;;14.85;6.60;;;20.90;52.20;;;;;;4897735;29;20033;-70
2021/05/05 07:23:04;;;;;;;9.10;6.20;;;21.00;51.20;;;;;;4884927;29;20335;-70
2021/05/05 07:25:30;;;;;;;10.32;5.63;;;21.00;50.30;;;;;;4886962;29;20033;-70
2021/05/05 07:27:58;;;;;;;18.65;5.38;;;21.10;50.20;;;;;;4894854;29;20033;-69
2021/05/05 07:30:24;;;;;;;14.43;6.30;;;21.10;49.90;;;;;;4870439;29;20029;-70
2021/05/05 07:32:50;;;;;;;17.03;6.53;;;21.20;50.30;;;;;;4876633;29;20021;-70
2021/05/05 07:35:18;;;;;;;10.07;6.40;;;21.20;49.00;;;;;;4887130;29;20033;-70
2021/05/05 07:45:31;;;;;;;9.48;4.72;;;21.50;47.50;;;;;;4887895;29;20044;-70
2021/05/05 07:48:06;;;;;;;13.00;5.60;;;21.60;48.60;;;;;;4871959;29;20041;-70
2021/05/05 07:50:32;;;;;;;8.73;5.47;;;21.80;47.10;;;;;;4874779;29;20014;-70
2021/05/05 07:53:00;;;;;;;14.25;5.20;;;22.10;46.30;;;;;;4873897;29;20033;-70
2021/05/05 07:55:26;;;;;;;13.05;5.63;;;22.30;47.30;;;;;;4886298;29;20384;-70
2021/05/05 07:57:52;;;;;;;14.23;5.65;;;22.40;45.70;;;;;;4883863;29;20105;-70
2021/05/05 08:00:18;;;;;;;26.17;5.63;;;22.40;45.30;;;;;;4884328;29;20037;-70
2021/05/05 08:02:44;;;;;;;11.90;5.57;;;22.50;46.00;;;;;;4875439;29;20048;-69
2021/05/05 08:05:10;;;;;;;11.57;5.40;;;22.40;44.00;;;;;;4878690;29;20245;-69
2021/05/05 08:07:36;;;;;;;11.65;5.55;;;22.50;44.30;;;;;;4879025;29;20036;-69
2021/05/05 08:10:03;;;;;;;12.40;5.15;;;22.60;44.20;;;;;;4886583;29;20270;-69
2021/05/05 08:12:28;;;;;;;;;;;22.60;43.80;;;;;;4885730;29;20044;-70
2021/05/05 08:14:54;;;;;;;14.90;5.63;;;22.70;44.50;;;;;;4876146;29;19935;-70
2021/05/05 08:17:20;;;;;;;13.13;6.22;;;22.60;44.20;;;;;;4884425;29;20041;-70
2021/05/05 08:19:46;;;;;;;10.18;5.50;;;22.70;44.50;;;;;;4884611;29;20032;-70
2021/05/05 08:22:12;;;;;;;10.45;5.30;;;22.60;45.10;;;;;;4886893;29;20217;-70
2021/05/05 08:24:38;;;;;;;12.10;4.93;;;22.70;44.10;;;;;;4885168;29;20048;-71
2021/05/05 08:27:04;;;;;;;8.17;5.40;;;22.90;44.50;;;;;;4890071;29;20036;-70
2021/05/05 08:29:31;;;;;;;15.65;5.22;;;23.10;43.50;;;;;;4873265;29;20031;-70
2021/05/05 08:31:58;;;;;;;11.80;4.88;;;23.30;44.10;;;;;;4872641;29;20021;-70
2021/05/05 08:34:25;;;;;;;8.30;4.32;;;23.90;44.50;;;;;;4872764;29;20093;-70
2021/05/05 08:36:52;;;;;;;;;;;24.70;44.00;;;;;;4876633;29;20060;-70
2021/05/05 08:39:17;;;;;;;15.25;4.60;;;25.20;42.40;;;;;;4896497;29;19908;-70
2021/05/05 08:41:43;;;;;;;10.07;4.15;;;25.40;42.20;;;;;;4886964;29;20042;-70
2021/05/05 08:44:11;;;;;;;8.77;4.43;;;25.40;40.40;;;;;;4876961;29;20052;-70
2021/05/05 08:46:38;;;;;;;18.13;4.38;;;25.20;40.60;;;;;;4878057;29;20047;-70
2021/05/05 08:49:04;;;;;;;13.77;6.65;;;25.20;40.20;;;;;;4882904;29;20025;-71
2021/05/05 08:51:30;;;;;;;16.35;5.03;;;24.90;39.40;;;;;;4902391;29;20080;-72
2021/05/05 08:53:56;;;;;;;14.55;4.65;;;24.60;39.90;;;;;;4876039;29;20045;-70
2021/05/05 08:56:22;;;;;;;10.13;4.90;;;24.60;40.30;;;;;;4873992;29;20316;-70
2021/05/05 08:58:48;;;;;;;15.60;5.07;;;24.50;40.20;;;;;;4880253;29;20029;-70
2021/05/05 09:01:14;;;;;;;10.18;4.60;;;24.50;40.20;;;;;;4884601;29;20036;-70
2021/05/05 09:03:42;;;;;;;10.60;4.80;;;24.40;40.00;;;;;;4881888;29;20021;-69
2021/05/05 09:06:08;;;;;;;14.25;4.60;;;24.50;39.60;;;;;;4879750;29;20036;-69
2021/05/05 09:08:34;;;;;;;18.13;5.75;;;24.20;39.70;;;;;;4888614;29;20528;-70
2021/05/05 09:11:08;;;;;;;15.40;4.57;;;23.90;41.30;;;;;;4883767;29;20032;-70
2021/05/05 09:13:49;;;;;;;6.97;4.10;;;24.00;41.30;;;;;;4876514;29;20027;-70
2021/05/05 09:16:21;;;;;;;7.50;3.92;;;24.10;40.90;;;;;;4876200;29;20033;-69
2021/05/05 09:19:00;;;;;;;15.13;4.82;;;24.00;40.60;;;;;;4887808;29;20149;-70
2021/05/05 09:21:34;;;;;;;19.08;4.07;;;24.10;41.40;;;;;;4886288;29;20029;-70
2021/05/05 09:24:26;;;;;;;6.72;3.80;;;24.40;41.60;;;;;;4873929;29;20025;-70
2021/05/05 09:26:55;;;;;;;9.73;3.45;;;25.30;42.10;;;;;;4894018;29;20033;-70
2021/05/05 09:29:35;;;;;;;7.93;3.47;;;26.10;39.50;;;;;;4870984;29;20125;-70
2021/05/05 09:32:01;;;;;;;20.40;4.47;;;26.70;39.80;;;;;;4878798;29;20032;-71
2021/05/05 09:34:27;;;;;;;14.40;4.38;;;27.50;36.80;;;;;;4889583;29;20029;-71
2021/05/05 09:37:01;;;;;;;11.00;4.07;;;27.80;35.10;;;;;;4889787;29;20079;-71
2021/05/05 09:39:35;;;;;;;8.50;3.72;;;27.60;35.00;;;;;;4875512;29;20073;-70
2021/05/05 09:42:01;;;;;;;8.95;4.28;;;28.10;36.40;;;;;;4871053;29;20048;-71
2021/05/05 09:44:28;;;;;;;11.18;4.28;;;29.10;34.90;;;;;;4870724;29;20039;-71
2021/05/05 09:46:57;;;;;;;14.07;4.28;;;29.70;33.90;;;;;;4872926;29;20053;-71
2021/05/05 09:49:34;;;;;;;10.25;4.00;;;30.40;31.80;;;;;;4884135;29;20367;-71
2021/05/05 09:52:19;;;;;;;7.30;3.83;;;30.60;30.60;;;;;;4889714;29;20309;-71
2021/05/05 09:54:59;;;;;;;11.10;4.05;;;30.80;29.90;;;;;;4889717;29;20226;-71
2021/05/05 09:57:28;;;;;;;9.43;3.47;;;31.40;31.20;;;;;;4889432;29;20060;-71
2021/05/05 10:00:08;;;;;;;23.42;3.90;;;31.80;30.50;;;;;;4889391;29;20028;-72
2021/05/05 10:02:50;;;;;;;15.02;4.30;;;31.30;29.80;;;;;;4888164;29;20049;-71
2021/05/05 10:05:19;;;;;;;14.68;4.85;;;30.60;31.80;;;;;;4887328;29;20024;-71
2021/05/05 10:07:56;;;;;;;11.00;4.75;;;30.00;31.00;;;;;;4889159;29;20220;-70
2021/05/05 10:10:27;;;;;;;10.63;4.35;;;29.00;30.90;;;;;;4884193;29;20033;-71
2021/05/05 10:12:56;;;;;;;12.55;5.88;;;29.30;33.40;;;;;;4900658;29;20254;-71
2021/05/05 10:15:22;;;;;;;16.77;4.55;;;30.20;31.80;;;;;;4886561;29;20025;-71
2021/05/05 10:17:49;;;;;;;;;;;30.50;31.70;;;;;;4876306;29;20292;-68
2021/05/05 10:20:23;;;;;;;12.00;4.18;;;31.60;30.90;;;;;;4876298;29;19915;-68
2021/05/05 10:22:54;;;;;;;9.68;3.75;;;32.30;30.30;;;;;;4897579;29;20033;-68
2021/05/05 10:25:20;;;;;;;9.55;3.40;;;32.10;30.70;;;;;;4886676;29;20035;-68
2021/05/05 10:27:46;;;;;;;;;;;31.90;29.90;;;;;;4878572;29;20093;-68
2021/05/05 10:30:17;;;;;;;6.25;3.80;;;31.00;29.30;;;;;;4870939;29;19915;-70
2021/05/05 10:32:45;;;;;;;12.65;4.25;;;29.70;30.20;;;;;;4876678;29;20039;-68
2021/05/05 10:35:15;;;;;;;11.25;4.18;;;28.90;30.80;;;;;;4891769;29;20041;-68
2021/05/05 10:37:45;;;;;;;9.85;4.07;;;27.50;32.60;;;;;;4886536;29;20040;-69
2021/05/05 10:40:19;;;;;;;18.55;4.47;;;26.70;33.70;;;;;;4885635;29;20040;-68
2021/05/05 10:42:49;;;;;;;10.30;3.95;;;25.60;33.70;;;;;;4888347;29;20047;-67
2021/05/05 10:45:41;;;;;;;11.77;3.80;;;24.80;35.20;;;;;;4876694;29;20361;-67
2021/05/05 10:48:12;;;;;;;7.30;3.15;;;24.20;35.50;;;;;;4877637;29;20044;-68
2021/05/05 10:50:53;;;;;;;7.70;2.65;;;23.60;37.80;;;;;;4889555;29;20064;-68
2021/05/05 10:53:36;;;;;;;7.45;2.38;;;23.20;39.10;;;;;;4887684;29;20084;-67
2021/05/05 10:56:19;;;;;;;10.38;3.17;;;22.80;40.70;;;;;;4870938;29;20321;-68
2021/05/05 10:58:58;;;;;;;11.43;2.88;;;22.80;40.60;;;;;;4891336;29;20041;-67
2021/05/05 11:01:46;;;;;;;4.63;2.20;;;22.30;41.10;;;;;;4888077;29;20024;-67
2021/05/05 11:04:15;;;;;;;4.38;2.20;;;22.00;42.60;;;;;;4891814;29;20025;-67
2021/05/05 11:06:43;;;;;;;30.58;3.20;;;21.70;43.10;;;;;;4892648;29;20112;-66
2021/05/05 11:09:11;;;;;;;27.85;3.05;;;21.20;44.80;;;;;;4886203;29;20017;-67
2021/05/05 11:11:48;;;;;;;19.70;2.63;;;20.60;46.40;;;;;;4860692;29;20040;-68
2021/05/05 11:14:23;;;;;;;;;;;20.10;48.20;;;;;;4900606;29;20017;-68
2021/05/05 11:16:55;;;;;;;17.42;1.80;;;19.60;49.10;;;;;;4887459;29;19952;-69
2021/05/05 11:19:37;;;;;;;10.02;2.38;;;19.10;50.00;;;;;;4875552;29;20037;-69
2021/05/05 11:22:18;;;;;;;7.35;1.65;;;18.70;51.40;;;;;;4885543;29;20025;-68
2021/05/05 11:24:49;;;;;;;9.27;1.45;;;18.40;52.40;;;;;;4881109;29;20380;-68
2021/05/05 11:27:16;;;;;;;5.47;1.30;;;18.10;54.00;;;;;;4872264;29;20024;-68
2021/05/05 11:29:44;;;;;;;8.77;1.33;;;17.80;55.20;;;;;;4883341;29;20081;-69
2021/05/05 11:32:25;;;;;;;3.67;1.88;;;17.80;56.50;;;;;;4890479;29;20405;-68
2021/05/05 11:34:51;;;;;;;7.45;1.50;;;17.40;58.40;;;;;;4869148;29;20033;-69
2021/05/05 11:37:23;;;;;;;8.13;1.75;;;17.20;62.50;;;;;;4869617;29;20042;-68
2021/05/05 11:39:58;;;;;;;4.55;1.52;;;16.90;63.30;;;;;;4884370;29;20025;-68
2021/05/05 11:42:27;;;;;;;3.30;1.52;;;16.70;64.80;;;;;;4873664;29;20258;-68
2021/05/05 11:44:57;;;;;;;8.10;1.55;;;16.60;64.70;;;;;;4886938;29;20020;-68
2021/05/05 11:47:32;;;;;;;4.90;1.30;;;16.50;65.30;;;;;;4885002;29;20061;-68
2021/05/05 11:50:07;;;;;;;6.07;2.05;;;16.40;66.50;;;;;;4881894;29;20032;-69
2021/05/05 11:52:41;;;;;;;6.68;1.48;;;16.40;67.10;;;;;;4889985;29;20028;-68
2021/05/05 11:55:07;;;;;;;3.28;1.17;;;16.60;66.90;;;;;;4889576;29;20029;-68
2021/05/05 11:57:39;;;;;;;3.25;1.50;;;16.60;67.00;;;;;;4889646;29;20029;-69
2021/05/05 12:00:20;;;;;;;3.28;1.10;;;16.50;67.50;;;;;;4882462;29;20025;-69
2021/05/05 12:02:48;;;;;;;4.22;1.00;;;16.40;67.90;;;;;;4890434;29;20053;-68
2021/05/05 12:05:36;;;;;;;2.55;1.05;;;16.30;67.80;;;;;;4883722;29;20277;-69
2021/05/05 12:08:18;;;;;;;5.25;1.55;;;16.10;69.40;;;;;;4887607;29;20041;-69
2021/05/05 12:10:45;;;;;;;4.28;0.70;;;16.20;69.20;;;;;;4888017;29;20368;-69
2021/05/05 12:13:15;;;;;;;3.20;1.08;;;16.10;68.90;;;;;;4882642;29;20121;-69
2021/05/05 12:15:58;;;;;;;4.80;1.45;;;16.10;68.50;;;;;;4906206;29;20024;-69
2021/05/05 12:18:36;;;;;;;4.38;1.25;;;16.40;68.30;;;;;;4891467;29;20112;-69
2021/05/05 12:21:14;;;;;;;9.52;1.67;;;16.40;68.60;;;;;;4905916;29;20038;-69
2021/05/05 12:23:42;;;;;;;3.85;1.20;;;16.60;68.00;;;;;;4889013;29;20454;-68
2021/05/05 12:26:33;;;;;;;6.65;1.40;;;16.30;68.60;;;;;;4890252;29;20059;-68
2021/05/05 12:29:00;;;;;;;3.33;1.30;;;16.50;68.60;;;;;;4836396;29;20050;-69
2021/05/05 12:31:31;;;;;;;1.73;0.93;;;16.70;67.90;;;;;;4836117;29;20034;-69
2021/05/05 12:33:59;;;;;;;2.67;1.20;;;16.80;67.30;;;;;;4851385;29;20257;-68
2021/05/05 12:36:26;;;;;;;;;;;16.80;67.30;;;;;;4852595;29;20341;-69
2021/05/05 12:39:11;;;;;;;1.52;0.80;;;16.90;66.40;;;;;;4852356;29;19916;-68
2021/05/05 12:41:44;;;;;;;5.93;0.57;;;16.80;66.00;;;;;;4851837;29;20026;-69
2021/05/05 12:44:12;;;;;;;1.92;0.77;;;16.60;64.80;;;;;;4850813;29;20373;-69
2021/05/05 12:46:58;;;;;;;1.83;0.63;;;16.50;65.40;;;;;;4851590;29;20065;-68
2021/05/05 12:49:29;;;;;;;1.23;0.55;;;16.50;63.60;;;;;;4851292;29;20097;-68
2021/05/05 12:51:56;;;;;;;2.35;0.57;;;16.50;63.00;;;;;;4852158;29;20049;-68
2021/05/05 12:54:29;;;;;;;4.53;0.40;;;16.70;62.40;;;;;;4851681;29;20206;-68
2021/05/05 12:56:55;;;;;;;4.30;0.40;;;16.60;60.70;;;;;;4851651;29;20237;-68
2021/05/05 12:59:30;;;;;;;0.93;0.28;;;16.30;61.10;;;;;;4836546;29;20050;-69
2021/05/05 13:02:05;;;;;;;1.05;0.40;;;16.20;61.10;;;;;;4836484;29;20041;-68
2021/05/05 13:04:38;;;;;;;4.72;0.47;;;15.90;61.40;;;;;;4850421;29;20026;-68
2021/05/05 13:07:05;;;;;;;2.72;0.40;;;15.80;61.50;;;;;;4880838;29;20045;-68
2021/05/05 13:09:32;;;;;;;3.73;0.30;;;15.60;61.60;;;;;;4877333;29;20112;-68
2021/05/05 13:12:28;;;;;;;1.35;0.40;;;15.40;61.60;;;;;;4875707;29;20081;-68
2021/05/05 13:15:16;;;;;;;;;;;15.20;62.30;;;;;;4876798;29;20029;-68
2021/05/05 13:18:39;;;;;;;0.30;0.22;;;15.10;64.80;;;;;;4894147;29;19930;-68
2021/05/05 13:33:02;;;;;;;0.73;0.70;;;14.20;74.70;;;;;;4831313;29;20049;-67
2021/05/05 13:35:32;;;;;;;0.80;0.60;;;13.90;75.90;;;;;;4842471;29;20101;-68
2021/05/05 13:38:04;;;;;;;2.72;0.75;;;14.00;77.80;;;;;;4850125;29;20037;-67
2021/05/05 13:40:34;;;;;;;4.15;0.52;;;14.00;80.10;;;;;;4850534;29;20051;-68
2021/05/05 13:43:03;;;;;;;7.45;1.00;;;14.20;81.50;;;;;;4838485;29;20067;-68
2021/05/05 13:45:33;;;;;;;5.55;0.80;;;14.20;83.50;;;;;;4834743;29;20089;-68
2021/05/05 13:48:11;;;;;;;1.85;0.60;;;14.20;82.80;;;;;;4840427;29;20057;-68
2021/05/05 13:50:37;;;;;;;1.00;0.70;;;14.10;83.50;;;;;;4831439;29;20301;-68
2021/05/05 13:53:03;;;;;;;2.63;1.05;;;14.10;82.90;;;;;;4839365;29;20031;-68
2021/05/05 13:55:29;;;;;;;1.58;0.93;;;14.10;82.90;;;;;;4833299;29;20112;-68
2021/05/05 13:57:55;;;;;;;2.38;1.65;;;14.20;82.60;;;;;;4835734;29;20042;-68
2021/05/05 14:00:21;;;;;;;4.18;3.72;;;13.90;82.60;;;;;;4817503;29;20038;-68
2021/05/05 14:02:46;;;;;;;2.10;1.23;;;14.10;83.60;;;;;;4840472;29;20073;-68
2021/05/05 14:05:13;;;;;;;1.98;1.27;;;14.00;83.20;;;;;;4850287;29;20046;-68
2021/05/05 14:07:42;;;;;;;1.95;1.58;;;14.10;83.40;;;;;;4871580;29;20210;-68
2021/05/05 14:10:09;;;;;;;3.17;1.30;;;14.00;83.60;;;;;;4878963;29;20037;-68
2021/05/05 14:12:36;;;;;;;2.55;1.52;;;13.90;83.70;;;;;;4888653;29;20032;-69
2021/05/05 14:15:05;;;;;;;3.60;1.95;;;14.00;84.50;;;;;;4882028;29;20065;-68
2021/05/05 14:17:36;;;;;;;3.47;1.75;;;13.70;85.50;;;;;;4875179;29;20037;-68
2021/05/05 14:20:05;;;;;;;2.72;1.75;;;13.70;85.60;;;;;;4880287;29;20040;-69
2021/05/05 14:22:31;;;;;;;5.43;1.85;;;13.70;85.30;;;;;;4879048;29;20036;-68
2021/05/05 14:24:57;;;;;;;5.45;1.95;;;13.70;86.40;;;;;;4888916;29;20028;-69
2021/05/05 14:27:22;;;;;;;1.50;1.13;;;13.70;85.30;;;;;;4886580;29;20032;-68
2021/05/05 14:29:48;;;;;;;1.80;1.35;;;13.60;83.00;;;;;;4880236;29;20032;-68
2021/05/05 14:32:14;;;;;;;2.90;1.73;;;13.70;83.60;;;;;;4879333;29;20039;-68
2021/05/05 14:34:40;;;;;;;4.60;2.15;;;13.70;83.40;;;;;;4884274;29;20025;-68
2021/05/05 14:37:06;;;;;;;1.85;1.20;;;13.70;82.40;;;;;;4898017;29;20044;-68
2021/05/05 14:39:32;;;;;;;4.57;1.83;;;13.80;77.70;;;;;;4881149;29;20244;-68
2021/05/05 14:41:57;;;;;;;2.47;1.40;;;13.90;78.60;;;;;;4882823;29;20104;-68
2021/05/05 14:44:32;;;;;;;3.88;2.20;;;13.90;78.00;;;;;;4883988;29;20036;-69
2021/05/05 14:49:47;;;;;;;1.88;1.23;;;14.00;77.20;;;;;;4887391;29;20029;-68
2021/05/05 14:52:12;;;;;;;5.72;1.40;;;13.90;77.10;;;;;;4871644;29;20033;-68
2021/05/05 14:54:38;;;;;;;3.83;1.77;;;13.70;76.50;;;;;;4877350;29;20064;-68
2021/05/05 14:57:04;;;;;;;4.00;1.80;;;13.70;75.60;;;;;;4884607;29;20029;-68
2021/05/05 14:59:30;;;;;;;3.40;1.60;;;13.60;77.00;;;;;;4883302;29;20048;-68
2021/05/05 15:01:55;;;;;;;3.25;1.52;;;13.30;76.70;;;;;;4880957;29;20344;-68
2021/05/05 15:04:21;;;;;;;1.90;1.33;;;13.40;76.80;;;;;;4887061;29;20058;-68
2021/05/05 15:06:48;;;;;;;2.75;1.65;;;13.30;76.30;;;;;;4884467;29;20185;-68
2021/05/05 15:09:39;;;;;;;;;;;13.30;77.50;;;;;;4886281;29;20085;-68
2021/05/05 15:12:21;;;;;;;4.35;2.15;;;13.30;76.80;;;;;;4888207;29;19908;-69
2021/05/05 15:27:56;;;;;;;8.13;1.95;;;13.20;78.20;;;;;;4879061;29;20080;-68
2021/05/05 15:36:42;;;;;;;4.60;2.55;;;12.60;83.90;;;;;;4884303;29;20213;-68
2021/05/05 15:39:11;;;;;;;2.35;1.27;;;12.60;84.20;;;;;;4873823;29;20351;-68
2021/05/05 15:41:46;;;;;;;2.38;1.40;;;12.70;81.50;;;;;;4889367;29;20029;-67
2021/05/05 15:49:34;;;;;;;2.17;1.30;;;12.60;80.80;;;;;;4887222;29;20101;-68
2021/05/05 15:52:02;;;;;;;4.63;1.27;;;12.70;81.40;;;;;;4887298;29;20044;-68
2021/05/05 15:54:29;;;;;;;3.00;1.05;;;12.70;79.90;;;;;;4884958;29;20033;-69
2021/05/05 15:56:57;;;;;;;;;;;12.60;78.00;;;;;;4881779;29;20034;-68
2021/05/05 16:12:54;;;;;;;1.83;0.90;;;12.70;70.80;;;;;;4867757;29;20061;-69
2021/05/05 16:17:57;;;;;;;6.20;1.08;;;12.40;71.00;;;;;;4871052;29;20101;-68
2021/05/05 16:20:26;;;;;;;2.45;0.90;;;12.40;73.20;;;;;;4852356;29;20201;-68
2021/05/05 16:26:00;;;;;;;1.40;1.00;;;12.20;73.40;;;;;;4850586;29;20042;-68
2021/05/05 16:28:41;;;;;;;2.45;0.85;;;12.10;74.10;;;;;;4868185;29;20093;-68
2021/05/05 16:47:36;;;;;;;3.90;1.70;;;12.10;73.50;;;;;;4859862;29;20112;-68
2021/05/05 16:55:21;;;;;;;1.25;0.70;;;12.10;72.70;;;;;;4879743;29;20034;-68
2021/05/05 16:57:57;;;;;;;1.15;0.70;;;12.00;71.60;;;;;;4860910;29;20355;-69
2021/05/05 17:00:45;;;;;;;5.30;0.80;;;12.10;70.80;;;;;;4859108;29;20104;-68
2021/05/05 17:08:27;;;;;;;4.03;0.90;;;12.10;70.90;;;;;;4882748;29;20025;-68
2021/05/05 17:10:53;;;;;;;1.88;0.60;;;11.90;69.00;;;;;;4887033;29;20029;-68
2021/05/05 17:13:19;;;;;;;1.80;0.65;;;12.10;68.10;;;;;;4879531;29;20073;-68